Latest Weather Observations for Renmark Airport

IDS60801

Issued at 8:31 pm CDT Sunday 14 February 2016 (issued every 30 minutes, with the page automatically refreshed every 10 minutes)

About weather observations | Map of weather stations | Latest weather observations for SA | Other Formats
Station Details ID: 024048 Name: RENMARK AERO Lat: -34.20 Lon: 140.68 Height: 31.5 m
Data from the previous 72 hours. | See also: Recent months at Renmark Airport
Date/Time
CDT
Temp
°C
App
Temp
°C
Dew
Point
Rel
Hum
%
Delta-T
°C
Wind Press
QNH
hPa
Press
MSL
hPa
Rain
since 9 am
mm
Dir
 
Spd
km/h
Gust
km/h
Spd
kts
Gust
kts
14/08:30pm 23.2 18.4 5.6 32 8.9 SSW 20 30 11 16 1014.0 1013.9 0.0
14/08:00pm 23.8 18.9 5.2 30 9.4 SSW 20 32 11 17 1013.7 1013.6 0.0
14/07:30pm 24.9 19.7 5.7 29 9.8 SSW 22 35 12 19 1013.1 1013.0 0.0
14/07:00pm 25.8 19.8 5.4 27 10.4 SSW 26 39 14 21 1012.6 1012.5 0.0
14/06:30pm 26.9 21.3 5.2 25 11.1 SSW 24 39 13 21 1012.3 1012.2 0.0
14/06:00pm 27.2 21.5 4.9 24 11.4 SSW 24 37 13 20 1012.0 1011.9 0.0
14/05:30pm 27.3 22.5 5.6 25 11.2 S 20 35 11 19 1012.1 1012.0 0.0
14/05:00pm 27.4 22.9 6.2 26 11.1 SW 19 32 10 17 1012.2 1012.1 0.0
14/04:30pm 26.7 22.3 7.2 29 10.3 S 20 30 11 16 1012.5 1012.4 0.0
14/04:00pm 26.8 22.0 7.3 29 10.4 SSW 22 33 12 18 1012.7 1012.6 0.0
14/03:30pm 27.0 22.6 7.5 29 10.4 WSW 20 37 11 20 1012.9 1012.8 0.0
14/03:00pm 26.7 22.7 8.2 31 10.0 SSW 19 30 10 16 1013.3 1013.2 0.0
14/02:30pm 25.9 22.5 7.5 31 9.8 S 15 22 8 12 1013.8 1013.7 0.0
14/02:00pm 26.0 22.1 7.1 30 10.0 S 17 28 9 15 1014.0 1013.9 0.0
14/01:30pm 25.8 22.2 6.9 30 9.9 SSW 15 28 8 15 1014.3 1014.2 0.0
14/01:00pm 25.0 21.1 7.2 32 9.4 SSW 17 35 9 19 1014.6 1014.5 0.0
14/12:30pm 23.8 19.6 7.4 35 8.6 SSW 19 30 10 16 1015.1 1015.0 0.0
14/12:00pm 24.0 19.6 7.2 34 8.8 S 20 32 11 17 1015.5 1015.3 0.0
14/11:30am 22.6 18.3 6.8 36 8.1 S 19 33 10 18 1015.8 1015.6 0.0
14/11:00am 22.2 18.8 7.6 39 7.6 S 15 24 8 13 1015.9 1015.7 0.0
14/10:30am 22.2 17.8 7.6 39 7.6 SSE 20 28 11 15 1016.1 1015.9 0.0
14/10:00am 21.1 17.5 8.4 44 6.7 S 17 24 9 13 1016.1 1015.9 0.0
14/09:30am 19.8 16.9 9.7 52 5.4 S 15 22 8 12 1016.1 1015.9 0.0
14/09:00am 19.2 16.6 10.7 58 4.6 S 15 20 8 11 1016.1 1015.9 0.0
14/08:30am 17.7 15.7 12.8 73 2.7 S 15 19 8 10 1015.7 1015.5 0.0
14/08:00am 17.2 16.4 14.1 82 1.8 SSW 11 15 6 8 1015.3 1015.2 0.0
14/07:30am 16.8 16.5 14.3 85 1.4 SSW 9 13 5 7 1014.9 1014.8 0.0
14/07:00am 16.3 15.9 14.1 87 1.3 S 9 13 5 7 1014.3 1014.2 0.0
14/06:30am 16.2 15.4 13.9 86 1.3 S 11 15 6 8 1014.0 1013.9 0.0
14/06:00am 16.5 15.9 13.6 83 1.6 SSW 9 11 5 6 1013.6 1013.5 0.0
14/05:30am 17.0 16.8 13.5 80 2.0 SSW 7 11 4 6 1013.3 1013.2 0.0
14/05:00am 17.6 16.2 13.3 76 2.4 S 13 17 7 9 1013.1 1013.0 0.0
14/04:30am 17.9 16.0 13.0 73 2.8 S 15 24 8 13 1013.1 1013.0 0.0
14/04:00am 18.3 16.1 13.2 72 2.9 S 17 22 9 12 1012.7 1012.6 0.0
14/03:30am 18.6 15.6 12.6 68 3.4 S 20 30 11 16 1012.4 1012.3 0.0
14/03:00am 19.2 16.3 12.2 64 3.9 S 19 24 10 13 1012.5 1012.4 0.0
14/02:30am 19.4 16.3 11.7 61 4.3 SSW 19 28 10 15 1012.6 1012.5 0.0
14/02:00am 19.7 16.4 11.5 59 4.5 S 20 28 11 15 1012.7 1012.6 0.0
14/01:30am 20.0 17.0 11.8 59 4.6 SSW 19 30 10 16 1012.5 1012.4 0.0
14/01:00am 20.3 17.3 12.5 61 4.4 SSW 20 28 11 15 1012.7 1012.6 0.0
14/12:30am 20.8 17.1 12.8 60 4.5 SSW 24 32 13 17 1012.0 1011.9 0.0
14/12:00am 21.2 17.9 13.9 63 4.2 SSW 24 44 13 24 1012.4 1012.3 0.0
 
Date/Time
CDT
Temp
°C
App
Temp
°C
Dew
Point
Rel
Hum
%
Delta-T
°C
Wind Press
QNH
hPa
Press
MSL
hPa
Rain
since 9 am
mm
Dir
 
Spd
km/h
Gust
km/h
Spd
kts
Gust
kts
13/11:30pm 21.8 19.0 14.4 63 4.3 SSW 22 32 12 17 1011.9 1011.8 0.0
13/11:00pm 22.2 18.7 14.6 62 4.5 SSW 26 39 14 21 1012.4 1012.3 0.0
13/10:30pm 22.8 19.0 14.6 60 4.8 SSW 28 41 15 22 1012.1 1012.0 0.0
13/10:00pm 23.7 20.4 14.1 55 5.6 SSW 24 33 13 18 1011.9 1011.8 0.0
13/09:30pm 24.1 20.3 13.6 52 6.1 SSW 26 37 14 20 1011.4 1011.3 0.0
13/09:00pm 24.6 20.8 13.5 50 6.5 SSW 26 37 14 20 1010.7 1010.6 0.0
13/08:30pm 25.4 21.8 12.9 45 7.3 SSW 24 35 13 19 1010.6 1010.5 0.0
13/08:00pm 26.5 21.5 12.2 41 8.3 SSW 30 41 16 22 1010.0 1009.9 0.0
13/07:30pm 28.6 23.6 10.8 33 10.2 SSW 28 39 15 21 1009.6 1009.5 0.0
13/07:00pm 32.1 26.3 9.6 25 12.8 SSW 30 43 16 23 1008.7 1008.6 0.0
13/06:30pm 35.1 29.9 7.2 18 15.5 SSW 24 33 13 18 1008.2 1008.1 0.0
13/06:00pm 35.5 29.6 5.8 16 16.2 SW 26 37 14 20 1007.9 1007.8 0.0
13/05:30pm 36.7 29.5 4.9 14 17.2 SSW 32 46 17 25 1007.7 1007.6 0.0
13/05:00pm 38.7 31.3 1.6 10 19.2 SW 30 46 16 25 1007.2 1007.1 0.0
13/04:47pm 39.3 31.9 -1.0 8 20.1 WSW 28 48 15 26 1007.1 1007.0 0.0
13/04:30pm 39.8 32.9 -2.4 7 20.8 WSW 24 32 13 17 1007.2 1007.1 0.0
13/04:00pm 38.4 32.7 -3.4 7 20.0 W 17 28 9 15 1007.5 1007.4 0.0
13/03:30pm 38.4 32.2 -3.4 7 20.1 W 20 32 11 17 1008.0 1007.9 0.0
13/03:00pm 38.1 30.5 -5.7 6 20.2 WSW 26 39 14 21 1008.4 1008.3 0.0
13/02:30pm 37.9 30.9 -3.8 7 19.8 WSW 24 39 13 21 1008.7 1008.6 0.0
13/02:00pm 37.4 31.3 -2.4 8 19.2 W 20 33 11 18 1008.9 1008.8 0.0
13/01:30pm 36.2 31.0 -0.2 10 18.1 WSW 17 32 9 17 1009.3 1009.2 0.0
13/01:00pm 35.1 31.1 2.6 13 16.8 W 13 22 7 12 1009.7 1009.6 0.0
13/12:30pm 35.1 29.9 2.6 13 16.8 WSW 19 30 10 16 1010.0 1009.9 0.0
13/12:00pm 33.3 29.4 3.2 15 15.5 WSW 13 19 7 10 1010.4 1010.3 0.0
13/11:30am 32.0 27.8 3.9 17 14.5 W 15 20 8 11 1011.0 1010.9 0.0
13/11:00am 31.3 28.4 4.9 19 13.8 SW 9 17 5 9 1011.3 1011.2 0.0
13/10:30am 29.7 26.5 5.1 21 12.8 SSW 11 17 6 9 1011.6 1011.5 0.0
13/10:00am 28.5 24.9 6.6 25 11.6 S 15 22 8 12 1011.8 1011.7 0.0
13/09:30am 28.9 26.3 3.0 19 13.0 SW 6 9 3 5 1011.6 1011.5 0.0
13/09:00am 27.0 24.8 5.3 25 11.2 NNW 6 9 3 5 1011.4 1011.3 0.0
13/08:30am 25.4 23.1 7.5 32 9.5 N 9 11 5 6 1011.3 1011.2 0.0
13/08:00am 22.6 21.1 9.0 42 7.3 NNW 7 11 4 6 1011.2 1011.1 0.0
13/07:30am 19.4 17.8 8.7 50 5.6 WNW 7 9 4 5 1011.5 1011.4 0.0
13/07:00am 17.9 15.9 8.5 54 4.8 W 9 11 5 6 1011.5 1011.4 0.0
13/06:30am 17.4 15.2 8.0 54 4.8 WSW 9 9 5 5 1011.3 1011.2 0.0
13/06:00am 16.9 14.8 8.3 57 4.4 WSW 9 11 5 6 1011.0 1010.9 0.0
13/05:30am 15.8 13.6 6.0 52 4.7 SW 7 9 4 5 1010.4 1010.3 0.0
13/05:00am 15.7 13.3 5.3 50 4.9 WNW 7 9 4 5 1009.9 1009.8 0.0
13/04:30am 16.0 14.9 5.3 49 5.1 CALM 0 0 0 0 1009.9 1009.8 0.0
13/04:00am 16.6 15.5 5.3 47 5.4 CALM 0 0 0 0 1010.1 1010.0 0.0
13/03:30am 16.8 15.6 4.8 45 5.7 CALM 0 0 0 0 1010.2 1010.1 0.0
13/03:00am 17.8 16.9 6.0 46 5.8 CALM 0 0 0 0 1010.4 1010.3 0.0
13/02:30am 18.4 17.1 5.9 44 6.1 WSW 2 6 1 3 1010.6 1010.5 0.0
13/02:00am 19.9 19.1 6.3 41 6.8 CALM 0 0 0 0 1010.9 1010.8 0.0
13/01:30am 22.4 21.1 7.8 39 7.6 SSW 4 9 2 5 1011.1 1011.0 0.0
13/01:00am 23.6 21.4 7.7 36 8.4 S 9 11 5 6 1011.2 1011.1 0.0
13/12:30am 24.9 22.6 7.5 33 9.2 SSW 9 15 5 8 1011.4 1011.3 0.0
13/12:00am 25.8 22.2 6.9 30 9.9 SSW 15 20 8 11 1011.4 1011.3 0.0
 
Date/Time
CDT
Temp
°C
App
Temp
°C
Dew
Point
Rel
Hum
%
Delta-T
°C
Wind Press
QNH
hPa
Press
MSL
hPa
Rain
since 9 am
mm
Dir
 
Spd
km/h
Gust
km/h
Spd
kts
Gust
kts
12/11:30pm 26.6 22.1 6.1 27 10.7 SSW 19 24 10 13 1011.2 1011.1 0.0
12/11:00pm 22.4 19.7 2.5 27 9.4 WSW 6 19 3 10 1010.9 1010.8 0.0
12/10:30pm 23.4 21.6 1.1 23 10.4 CALM 0 0 0 0 1010.5 1010.4 0.0
12/10:00pm 24.7 22.9 0.9 21 11.1 CALM 0 2 0 1 1010.4 1010.3 0.0
12/09:30pm 25.9 24.0 0.5 19 11.9 CALM 0 0 0 0 1010.3 1010.2 0.0
12/09:00pm 28.2 26.4 0.9 17 13.1 CALM 0 0 0 0 1010.1 1010.0 0.0
12/08:30pm 31.7 28.5 1.0 14 15.1 SSE 7 9 4 5 1010.0 1009.9 0.0
12/08:00pm 33.3 29.8 1.2 13 16.0 S 9 13 5 7 1009.9 1009.8 0.0
12/07:30pm 35.1 31.1 0.2 11 17.3 S 11 15 6 8 1009.8 1009.7 0.0
12/07:00pm 35.7 31.2 -0.6 10 17.9 SSW 13 20 7 11 1009.5 1009.4 0.0
12/06:30pm 35.9 31.0 -0.5 10 18.0 SSW 15 24 8 13 1009.4 1009.3 0.0
12/06:00pm 36.3 31.4 -0.2 10 18.2 SW 15 24 8 13 1009.4 1009.3 0.0
12/05:30pm 36.8 31.2 0.2 10 18.4 WSW 19 30 10 16 1009.5 1009.4 0.0
12/05:00pm 36.9 31.0 -1.1 9 18.7 SW 20 37 11 20 1009.6 1009.5 0.0
12/04:30pm 36.9 30.0 -6.5 6 19.6 SW 22 33 12 18 1009.6 1009.5 0.0
12/04:00pm 36.5 30.3 0.0 10 18.2 WSW 22 35 12 19 1009.9 1009.8 0.0
12/03:30pm 35.9 30.8 0.9 11 17.7 SSE 17 28 9 15 1010.2 1010.1 0.0
12/03:00pm 35.9 32.2 4.2 14 16.9 SSE 13 22 7 12 1010.7 1010.6 0.0
12/02:30pm 34.8 31.1 4.4 15 16.1 S 13 20 7 11 1011.2 1011.1 0.0
12/02:00pm 35.1 32.2 4.6 15 16.2 SSE 9 15 5 8 1011.6 1011.5 0.0
12/01:30pm 34.0 30.7 4.6 16 15.6 E 11 22 6 12 1012.3 1012.2 0.0
12/01:00pm 33.1 30.6 4.8 17 15.0 SE 7 17 4 9 1012.7 1012.6 0.0
12/12:30pm 31.9 28.8 5.4 19 14.0 ENE 11 15 6 8 1013.2 1013.1 0.0
12/12:00pm 30.5 30.1 8.3 25 12.2 CALM 0 0 0 0 1013.5 1013.4 0.0
12/11:30am 28.9 27.6 9.1 29 11.0 SE 6 9 3 5 1013.9 1013.8 0.0
12/11:00am 28.0 27.2 9.8 32 10.2 NW 4 9 2 5 1014.3 1014.2 0.0
12/10:30am 26.4 24.9 10.5 37 8.9 ESE 9 15 5 8 1014.4 1014.3 0.0
12/10:00am 24.7 22.8 10.6 41 7.9 ENE 11 19 6 10 1014.5 1014.4 0.0
12/09:30am 24.2 21.6 10.8 43 7.5 SE 15 20 8 11 1014.6 1014.5 0.0
12/09:00am 22.2 18.8 10.7 48 6.3 SE 19 26 10 14 1014.7 1014.6 0.0
12/08:30am 20.9 18.5 11.3 54 5.3 SSE 15 22 8 12 1014.7 1014.6 0.0
12/08:00am 19.5 17.6 11.8 61 4.3 SSE 13 20 7 11 1014.7 1014.6 0.0
12/07:30am 18.2 16.4 12.0 67 3.4 SSW 13 19 7 10 1014.7 1014.6 0.0
12/07:00am 17.2 15.7 11.9 71 2.9 SSW 11 15 6 8 1014.2 1014.1 0.0
12/06:30am 16.8 15.6 11.7 72 2.8 SSW 9 15 5 8 1013.9 1013.8 0.0
12/06:00am 17.2 16.1 11.9 71 2.9 SSW 9 13 5 7 1013.5 1013.4 0.0
12/05:30am 17.2 16.5 11.9 71 2.9 SSW 7 11 4 6 1013.2 1013.1 0.0
12/05:00am 17.2 16.4 11.7 70 3.0 SW 7 9 4 5 1013.0 1012.9 0.0
12/04:30am 17.6 16.4 11.6 68 3.3 WSW 9 11 5 6 1012.9 1012.8 0.0
12/04:00am 18.7 17.6 11.8 64 3.8 WSW 9 13 5 7 1012.9 1012.8 0.0
12/03:30am 19.7 17.9 12.0 61 4.3 SW 13 19 7 10 1013.0 1012.9 0.0
12/03:00am 20.3 17.7 12.0 59 4.6 SSW 17 24 9 13 1013.1 1013.0 0.0
12/02:30am 20.4 17.8 12.1 59 4.6 SSW 17 26 9 14 1013.1 1013.0 0.0
12/02:00am 20.8 17.8 12.0 57 4.9 S 19 24 10 13 1013.2 1013.1 0.0
12/01:30am 21.3 18.1 11.9 55 5.3 S 20 30 11 16 1013.6 1013.5 0.0
12/01:00am 21.8 18.8 12.1 54 5.5 SSW 19 24 10 13 1013.9 1013.8 0.0
12/12:30am 22.3 19.7 12.0 52 5.8 S 17 26 9 14 1014.0 1013.9 0.0
12/12:00am 22.9 19.8 11.6 49 6.3 SSW 19 32 10 17 1014.0 1013.9 0.0
 
Date/Time
CDT
Temp
°C
App
Temp
°C
Dew
Point
Rel
Hum
%
Delta-T
°C
Wind Press
QNH
hPa
Press
MSL
hPa
Rain
since 9 am
mm
Dir
 
Spd
km/h
Gust
km/h
Spd
kts
Gust
kts
11/11:30pm 23.7 20.0 11.4 46 6.9 SSW 22 32 12 17 1013.8 1013.7 0.0
11/11:00pm 24.4 20.8 11.7 45 7.2 SSW 22 32 12 17 1013.6 1013.5 0.0
11/10:30pm 25.5 21.2 12.0 43 7.7 SSW 26 35 14 19 1013.7 1013.6 0.0
11/10:00pm 26.8 21.9 11.3 38 8.8 SSW 28 35 15 19 1013.4 1013.3 0.0
11/09:30pm 28.6 23.8 7.2 26 11.5 SSW 22 33 12 18 1012.9 1012.8 0.0
11/09:00pm 29.5 25.3 1.9 17 13.6 SSW 13 17 7 9 1012.4 1012.3 0.0

Other Formats:

Comma delimited format used in spreadsheet applications
http://www.bom.gov.au/fwo/IDS60801/IDS60801.95687.axf

JavaScript Object Notation format (JSON) in row-major order
http://www.bom.gov.au/fwo/IDS60801/IDS60801.95687.json